aviador You're here:

YWLM Decoded Metar

WILLIAMTOWN ARP in _UNIDENTIFIED
Report Time2017-09-23 18:00:00
UTC Time2017-09-23 18:24:32
Flight Rules vfr VFR
Wind290° at 08 kt
W.Decomp.*RWY 30: 7.4 kt HW 3 kt LCW
W.Rank290° ranks 2
Current wind is below 290° avg. (10.4)
Visibility9999 m
Phenomena:N/A
Clouds:N/A
Expected CloudBase > 7,200 ft AGL from Temp-Dew spread
CeilingNone
Temp23°C (ISA +8)
Dew Point05°C (31% RH)
AAT19.0°C
QNH1000 hPa
Density Alt1,529 ft
Elevation30 ft
Report Wrong Elevation
Raw Report
METAR YWLM 231800Z AUTO 29008KT 9999 // NCD 23/05 Q1000=

Extra information for YWLM:More info

Metar Taf Metar & Taf Last 4 Metars F.Rules Stats Wind Profile Meteogram Temp Stats Airport Information Weather charts Add Link Nearby VenuesMetar ALERT Operation Metar Decoded Social comments